sensor_id;sensor_type;location;lat;lon;timestamp;temperature;humidity
11399;DHT22;5755;48.116;11.608;2024-01-15T00:00:25;0.20;96.90
11399;DHT22;5755;48.116;11.608;2024-01-15T00:02:52;0.20;96.70
11399;DHT22;5755;48.116;11.608;2024-01-15T00:05:19;0.20;97.00
11399;DHT22;5755;48.116;11.608;2024-01-15T00:07:47;0.30;96.80
11399;DHT22;5755;48.116;11.608;2024-01-15T00:10:14;0.40;96.80
11399;DHT22;5755;48.116;11.608;2024-01-15T00:12:40;0.40;96.70
11399;DHT22;5755;48.116;11.608;2024-01-15T00:15:08;0.50;97.00
11399;DHT22;5755;48.116;11.608;2024-01-15T00:17:35;0.50;96.70
11399;DHT22;5755;48.116;11.608;2024-01-15T00:20:02;0.60;96.50
11399;DHT22;5755;48.116;11.608;2024-01-15T00:22:29;0.60;96.10
11399;DHT22;5755;48.116;11.608;2024-01-15T00:24:58;0.60;96.20
11399;DHT22;5755;48.116;11.608;2024-01-15T00:27:25;0.60;96.00
11399;DHT22;5755;48.116;11.608;2024-01-15T00:29:53;0.60;96.00
11399;DHT22;5755;48.116;11.608;2024-01-15T00:32:20;0.50;95.80
11399;DHT22;5755;48.116;11.608;2024-01-15T00:34:47;0.50;95.90
11399;DHT22;5755;48.116;11.608;2024-01-15T00:37:14;0.60;95.90
11399;DHT22;5755;48.116;11.608;2024-01-15T00:39:40;0.60;95.70
11399;DHT22;5755;48.116;11.608;2024-01-15T00:42:09;0.60;95.60
11399;DHT22;5755;48.116;11.608;2024-01-15T00:44:35;0.70;95.60
11399;DHT22;5755;48.116;11.608;2024-01-15T00:47:02;0.80;95.50
11399;DHT22;5755;48.116;11.608;2024-01-15T00:49:29;0.80;95.50
11399;DHT22;5755;48.116;11.608;2024-01-15T00:51:56;0.80;95.50
11399;DHT22;5755;48.116;11.608;2024-01-15T00:54:23;0.80;95.20
11399;DHT22;5755;48.116;11.608;2024-01-15T00:56:49;0.90;94.80
11399;DHT22;5755;48.116;11.608;2024-01-15T00:59:18;0.80;94.70
11399;DHT22;5755;48.116;11.608;2024-01-15T01:01:46;0.80;94.60
11399;DHT22;5755;48.116;11.608;2024-01-15T01:04:13;0.80;94.50
11399;DHT22;5755;48.116;11.608;2024-01-15T01:06:39;0.80;94.20
11399;DHT22;5755;48.116;11.608;2024-01-15T01:09:06;0.80;94.20
11399;DHT22;5755;48.116;11.608;2024-01-15T01:11:33;0.70;94.20
11399;DHT22;5755;48.116;11.608;2024-01-15T01:14:00;0.70;94.20
11399;DHT22;5755;48.116;11.608;2024-01-15T01:16:28;0.70;93.30
11399;DHT22;5755;48.116;11.608;2024-01-15T01:18:56;0.70;93.10
11399;DHT22;5755;48.116;11.608;2024-01-15T01:21:23;0.50;93.00
11399;DHT22;5755;48.116;11.608;2024-01-15T01:23:49;0.30;92.90
11399;DHT22;5755;48.116;11.608;2024-01-15T01:26:17;0.20;93.00
11399;DHT22;5755;48.116;11.608;2024-01-15T01:28:44;0.10;92.90
11399;DHT22;5755;48.116;11.608;2024-01-15T01:31:12;0.00;92.60
11399;DHT22;5755;48.116;11.608;2024-01-15T01:33:40;-0.10;92.50
11399;DHT22;5755;48.116;11.608;2024-01-15T01:36:08;-0.20;92.20
11399;DHT22;5755;48.116;11.608;2024-01-15T01:38:35;-0.30;92.00
11399;DHT22;5755;48.116;11.608;2024-01-15T01:41:02;-0.30;91.70
11399;DHT22;5755;48.116;11.608;2024-01-15T01:43:29;-0.30;91.40
11399;DHT22;5755;48.116;11.608;2024-01-15T01:45:57;-0.40;91.50
11399;DHT22;5755;48.116;11.608;2024-01-15T01:48:25;-0.50;91.20
11399;DHT22;5755;48.116;11.608;2024-01-15T01:50:53;-0.50;91.20
11399;DHT22;5755;48.116;11.608;2024-01-15T01:53:29;-0.60;91.20
11399;DHT22;5755;48.116;11.608;2024-01-15T01:55:57;-0.60;91.30
11399;DHT22;5755;48.116;11.608;2024-01-15T01:58:24;-0.70;91.30
11399;DHT22;5755;48.116;11.608;2024-01-15T02:00:51;-0.70;91.40
11399;DHT22;5755;48.116;11.608;2024-01-15T02:03:18;-0.70;92.00
11399;DHT22;5755;48.116;11.608;2024-01-15T02:05:46;-0.70;91.40
11399;DHT22;5755;48.116;11.608;2024-01-15T02:08:15;-0.70;91.60
11399;DHT22;5755;48.116;11.608;2024-01-15T02:10:42;-0.70;91.60
11399;DHT22;5755;48.116;11.608;2024-01-15T02:13:09;-0.80;91.50
11399;DHT22;5755;48.116;11.608;2024-01-15T02:15:36;-0.80;91.80
11399;DHT22;5755;48.116;11.608;2024-01-15T02:18:04;-0.80;91.80
11399;DHT22;5755;48.116;11.608;2024-01-15T02:20:33;-0.90;91.80
11399;DHT22;5755;48.116;11.608;2024-01-15T02:23:10;-0.80;91.60
11399;DHT22;5755;48.116;11.608;2024-01-15T02:25:41;-0.80;91.40
11399;DHT22;5755;48.116;11.608;2024-01-15T02:28:10;-0.70;91.30
11399;DHT22;5755;48.116;11.608;2024-01-15T02:30:38;-0.70;91.30
11399;DHT22;5755;48.116;11.608;2024-01-15T02:33:06;-0.70;91.50
11399;DHT22;5755;48.116;11.608;2024-01-15T02:35:33;-0.70;91.40
11399;DHT22;5755;48.116;11.608;2024-01-15T02:38:02;-0.70;91.30
11399;DHT22;5755;48.116;11.608;2024-01-15T02:40:30;-0.60;91.50
11399;DHT22;5755;48.116;11.608;2024-01-15T02:42:57;-0.60;91.40
11399;DHT22;5755;48.116;11.608;2024-01-15T02:45:24;-0.50;91.60
11399;DHT22;5755;48.116;11.608;2024-01-15T02:47:50;-0.50;91.70
11399;DHT22;5755;48.116;11.608;2024-01-15T02:50:17;-0.50;91.60
11399;DHT22;5755;48.116;11.608;2024-01-15T02:52:43;-0.50;91.50
11399;DHT22;5755;48.116;11.608;2024-01-15T02:55:10;-0.40;91.50
11399;DHT22;5755;48.116;11.608;2024-01-15T02:57:38;-0.50;91.60
11399;DHT22;5755;48.116;11.608;2024-01-15T03:00:06;-0.40;91.20
11399;DHT22;5755;48.116;11.608;2024-01-15T03:02:36;-0.40;91.10
11399;DHT22;5755;48.116;11.608;2024-01-15T03:05:05;-0.40;91.00
11399;DHT22;5755;48.116;11.608;2024-01-15T03:07:32;-0.40;91.10
11399;DHT22;5755;48.116;11.608;2024-01-15T03:09:59;-0.50;91.20
11399;DHT22;5755;48.116;11.608;2024-01-15T03:12:25;-0.50;91.20
11399;DHT22;5755;48.116;11.608;2024-01-15T03:14:54;-0.50;91.20
11399;DHT22;5755;48.116;11.608;2024-01-15T03:17:20;-0.50;91.50
11399;DHT22;5755;48.116;11.608;2024-01-15T03:19:47;-0.50;91.20
11399;DHT22;5755;48.116;11.608;2024-01-15T03:22:15;-0.40;90.80
11399;DHT22;5755;48.116;11.608;2024-01-15T03:24:41;-0.40;90.70
11399;DHT22;5755;48.116;11.608;2024-01-15T03:27:08;-0.50;90.60
11399;DHT22;5755;48.116;11.608;2024-01-15T03:29:35;-0.50;90.70
11399;DHT22;5755;48.116;11.608;2024-01-15T03:32:03;-0.50;90.90
11399;DHT22;5755;48.116;11.608;2024-01-15T03:34:30;-0.60;91.20
11399;DHT22;5755;48.116;11.608;2024-01-15T03:36:57;-0.50;90.80
11399;DHT22;5755;48.116;11.608;2024-01-15T03:39:24;-0.50;90.60
11399;DHT22;5755;48.116;11.608;2024-01-15T03:41:51;-0.50;90.30
11399;DHT22;5755;48.116;11.608;2024-01-15T03:44:18;-0.50;90.40
11399;DHT22;5755;48.116;11.608;2024-01-15T03:46:45;-0.40;90.30
11399;DHT22;5755;48.116;11.608;2024-01-15T03:49:13;-0.40;90.60
11399;DHT22;5755;48.116;11.608;2024-01-15T03:51:40;-0.50;90.60
11399;DHT22;5755;48.116;11.608;2024-01-15T03:54:06;-0.50;90.90
11399;DHT22;5755;48.116;11.608;2024-01-15T03:56:33;-0.60;91.00
11399;DHT22;5755;48.116;11.608;2024-01-15T03:59:00;-0.50;90.50
11399;DHT22;5755;48.116;11.608;2024-01-15T04:01:27;-0.60;90.50
11399;DHT22;5755;48.116;11.608;2024-01-15T04:03:55;-0.50;90.40
11399;DHT22;5755;48.116;11.608;2024-01-15T04:06:23;-0.40;89.60
11399;DHT22;5755;48.116;11.608;2024-01-15T04:08:49;-0.40;89.50
11399;DHT22;5755;48.116;11.608;2024-01-15T04:11:16;-0.50;90.00
11399;DHT22;5755;48.116;11.608;2024-01-15T04:13:43;-0.50;90.00
11399;DHT22;5755;48.116;11.608;2024-01-15T04:16:10;-0.50;89.90
11399;DHT22;5755;48.116;11.608;2024-01-15T04:18:36;-0.40;89.10
11399;DHT22;5755;48.116;11.608;2024-01-15T04:21:04;-0.40;89.10
11399;DHT22;5755;48.116;11.608;2024-01-15T04:23:32;-0.40;88.70
11399;DHT22;5755;48.116;11.608;2024-01-15T04:25:59;-0.40;89.50
11399;DHT22;5755;48.116;11.608;2024-01-15T04:28:26;-0.40;88.90
11399;DHT22;5755;48.116;11.608;2024-01-15T04:30:53;-0.40;88.70
11399;DHT22;5755;48.116;11.608;2024-01-15T04:33:19;-0.50;89.10
11399;DHT22;5755;48.116;11.608;2024-01-15T04:35:46;-0.40;88.80
11399;DHT22;5755;48.116;11.608;2024-01-15T04:38:13;-0.40;87.80
11399;DHT22;5755;48.116;11.608;2024-01-15T04:40:41;-0.40;87.70
11399;DHT22;5755;48.116;11.608;2024-01-15T04:43:08;-0.40;87.90
11399;DHT22;5755;48.116;11.608;2024-01-15T04:45:35;-0.40;87.70
11399;DHT22;5755;48.116;11.608;2024-01-15T04:48:01;-0.40;87.00
11399;DHT22;5755;48.116;11.608;2024-01-15T04:50:28;-0.40;88.00
11399;DHT22;5755;48.116;11.608;2024-01-15T04:52:55;-0.50;88.70
11399;DHT22;5755;48.116;11.608;2024-01-15T04:55:22;-0.50;89.30
11399;DHT22;5755;48.116;11.608;2024-01-15T04:57:50;-0.50;88.90
11399;DHT22;5755;48.116;11.608;2024-01-15T05:00:17;-0.40;89.30
11399;DHT22;5755;48.116;11.608;2024-01-15T05:02:45;-0.50;89.20
11399;DHT22;5755;48.116;11.608;2024-01-15T05:05:11;-0.40;88.40
11399;DHT22;5755;48.116;11.608;2024-01-15T05:07:39;-0.40;87.80
11399;DHT22;5755;48.116;11.608;2024-01-15T05:10:07;-0.40;89.00
11399;DHT22;5755;48.116;11.608;2024-01-15T05:12:34;-0.50;89.30
11399;DHT22;5755;48.116;11.608;2024-01-15T05:15:02;-0.50;89.20
11399;DHT22;5755;48.116;11.608;2024-01-15T05:17:29;-0.50;89.40
11399;DHT22;5755;48.116;11.608;2024-01-15T05:19:56;-0.50;89.10
11399;DHT22;5755;48.116;11.608;2024-01-15T05:22:23;-0.40;89.00
11399;DHT22;5755;48.116;11.608;2024-01-15T05:24:50;-0.40;88.60
11399;DHT22;5755;48.116;11.608;2024-01-15T05:27:17;-0.50;88.60
11399;DHT22;5755;48.116;11.608;2024-01-15T05:29:43;-0.40;88.20
11399;DHT22;5755;48.116;11.608;2024-01-15T05:32:12;-0.40;88.70
11399;DHT22;5755;48.116;11.608;2024-01-15T05:34:38;-0.40;88.80
11399;DHT22;5755;48.116;11.608;2024-01-15T05:37:05;-0.50;89.30
11399;DHT22;5755;48.116;11.608;2024-01-15T05:39:32;-0.40;89.00
11399;DHT22;5755;48.116;11.608;2024-01-15T05:41:59;-0.40;88.60
11399;DHT22;5755;48.116;11.608;2024-01-15T05:44:26;-0.40;87.80
11399;DHT22;5755;48.116;11.608;2024-01-15T05:46:53;-0.40;88.50
11399;DHT22;5755;48.116;11.608;2024-01-15T05:49:22;-0.40;88.30
11399;DHT22;5755;48.116;11.608;2024-01-15T05:51:48;-0.50;88.20
11399;DHT22;5755;48.116;11.608;2024-01-15T05:54:18;-0.40;88.20
11399;DHT22;5755;48.116;11.608;2024-01-15T05:56:45;-0.40;88.30
11399;DHT22;5755;48.116;11.608;2024-01-15T05:59:11;-0.40;87.70
11399;DHT22;5755;48.116;11.608;2024-01-15T06:01:38;-0.40;87.50
11399;DHT22;5755;48.116;11.608;2024-01-15T06:04:05;-0.40;88.10
11399;DHT22;5755;48.116;11.608;2024-01-15T06:06:33;-0.40;87.00
11399;DHT22;5755;48.116;11.608;2024-01-15T06:09:00;-0.40;87.10
11399;DHT22;5755;48.116;11.608;2024-01-15T06:11:31;-0.40;86.60
11399;DHT22;5755;48.116;11.608;2024-01-15T06:13:58;-0.50;87.70
11399;DHT22;5755;48.116;11.608;2024-01-15T06:16:26;-0.40;87.10
11399;DHT22;5755;48.116;11.608;2024-01-15T06:18:52;-0.40;86.10
11399;DHT22;5755;48.116;11.608;2024-01-15T06:21:19;-0.40;85.60
11399;DHT22;5755;48.116;11.608;2024-01-15T06:23:47;-0.50;85.50
11399;DHT22;5755;48.116;11.608;2024-01-15T06:26:14;-0.50;85.90
11399;DHT22;5755;48.116;11.608;2024-01-15T06:28:41;-0.50;86.40
11399;DHT22;5755;48.116;11.608;2024-01-15T06:31:08;-0.50;86.30
11399;DHT22;5755;48.116;11.608;2024-01-15T06:33:35;-0.50;85.50
11399;DHT22;5755;48.116;11.608;2024-01-15T06:36:02;-0.50;86.30
11399;DHT22;5755;48.116;11.608;2024-01-15T06:38:36;-0.50;86.30
11399;DHT22;5755;48.116;11.608;2024-01-15T06:41:04;-0.40;85.60
11399;DHT22;5755;48.116;11.608;2024-01-15T06:43:31;-0.40;85.50
11399;DHT22;5755;48.116;11.608;2024-01-15T06:45:57;-0.40;85.60
11399;DHT22;5755;48.116;11.608;2024-01-15T06:48:27;-0.40;85.70
11399;DHT22;5755;48.116;11.608;2024-01-15T06:50:54;-0.40;85.60
11399;DHT22;5755;48.116;11.608;2024-01-15T06:53:21;-0.40;85.60
11399;DHT22;5755;48.116;11.608;2024-01-15T06:55:48;-0.50;85.50
11399;DHT22;5755;48.116;11.608;2024-01-15T06:58:18;-0.40;85.50
11399;DHT22;5755;48.116;11.608;2024-01-15T07:00:47;-0.50;85.50
11399;DHT22;5755;48.116;11.608;2024-01-15T07:03:16;-0.50;85.60
11399;DHT22;5755;48.116;11.608;2024-01-15T07:05:43;-0.50;85.50
11399;DHT22;5755;48.116;11.608;2024-01-15T07:08:10;-0.40;85.50
11399;DHT22;5755;48.116;11.608;2024-01-15T07:10:36;-0.40;85.60
11399;DHT22;5755;48.116;11.608;2024-01-15T07:13:03;-0.30;85.60
11399;DHT22;5755;48.116;11.608;2024-01-15T07:15:32;-0.40;85.50
11399;DHT22;5755;48.116;11.608;2024-01-15T07:17:59;-0.40;85.60
11399;DHT22;5755;48.116;11.608;2024-01-15T07:20:26;-0.40;86.40
11399;DHT22;5755;48.116;11.608;2024-01-15T07:22:53;-0.40;85.50
11399;DHT22;5755;48.116;11.608;2024-01-15T07:25:19;-0.40;85.60
11399;DHT22;5755;48.116;11.608;2024-01-15T07:27:46;-0.30;85.60
11399;DHT22;5755;48.116;11.608;2024-01-15T07:30:13;-0.30;85.60
11399;DHT22;5755;48.116;11.608;2024-01-15T07:32:42;-0.30;85.60
11399;DHT22;5755;48.116;11.608;2024-01-15T07:35:09;-0.30;85.60
11399;DHT22;5755;48.116;11.608;2024-01-15T07:37:36;-0.30;85.90
11399;DHT22;5755;48.116;11.608;2024-01-15T07:40:03;-0.20;85.70
11399;DHT22;5755;48.116;11.608;2024-01-15T07:42:32;-0.30;85.90
11399;DHT22;5755;48.116;11.608;2024-01-15T07:44:59;-0.20;85.70
11399;DHT22;5755;48.116;11.608;2024-01-15T07:47:26;-0.20;85.70
11399;DHT22;5755;48.116;11.608;2024-01-15T07:49:54;-0.20;87.20
11399;DHT22;5755;48.116;11.608;2024-01-15T07:52:22;-0.10;88.00
11399;DHT22;5755;48.116;11.608;2024-01-15T07:54:48;-0.10;87.80
11399;DHT22;5755;48.116;11.608;2024-01-15T07:57:15;0.00;85.90
11399;DHT22;5755;48.116;11.608;2024-01-15T07:59:42;0.00;86.10
11399;DHT22;5755;48.116;11.608;2024-01-15T08:02:09;0.00;85.80
11399;DHT22;5755;48.116;11.608;2024-01-15T08:04:36;0.10;85.90
11399;DHT22;5755;48.116;11.608;2024-01-15T08:07:05;0.10;85.90
11399;DHT22;5755;48.116;11.608;2024-01-15T08:09:32;0.20;85.90
11399;DHT22;5755;48.116;11.608;2024-01-15T08:12:00;0.10;85.90
11399;DHT22;5755;48.116;11.608;2024-01-15T08:14:27;0.20;86.00
11399;DHT22;5755;48.116;11.608;2024-01-15T08:16:53;0.20;85.90
11399;DHT22;5755;48.116;11.608;2024-01-15T08:19:20;0.20;86.00
11399;DHT22;5755;48.116;11.608;2024-01-15T08:21:47;0.20;85.90
11399;DHT22;5755;48.116;11.608;2024-01-15T08:24:15;0.20;85.90
11399;DHT22;5755;48.116;11.608;2024-01-15T08:26:45;0.20;85.90
11399;DHT22;5755;48.116;11.608;2024-01-15T08:29:12;0.20;86.00
11399;DHT22;5755;48.116;11.608;2024-01-15T08:31:39;0.10;85.90
11399;DHT22;5755;48.116;11.608;2024-01-15T08:34:06;0.20;87.50
11399;DHT22;5755;48.116;11.608;2024-01-15T08:36:33;0.20;85.90
11399;DHT22;5755;48.116;11.608;2024-01-15T08:39:01;0.20;85.90
11399;DHT22;5755;48.116;11.608;2024-01-15T08:41:31;0.30;86.00
11399;DHT22;5755;48.116;11.608;2024-01-15T08:43:58;0.30;86.00
11399;DHT22;5755;48.116;11.608;2024-01-15T08:46:24;0.30;86.00
11399;DHT22;5755;48.116;11.608;2024-01-15T08:48:51;0.20;86.00
11399;DHT22;5755;48.116;11.608;2024-01-15T08:51:18;0.20;85.90
11399;DHT22;5755;48.116;11.608;2024-01-15T08:53:45;0.10;85.90
11399;DHT22;5755;48.116;11.608;2024-01-15T08:56:12;0.10;85.90
11399;DHT22;5755;48.116;11.608;2024-01-15T08:58:40;0.10;85.90
11399;DHT22;5755;48.116;11.608;2024-01-15T09:01:06;0.20;85.90
11399;DHT22;5755;48.116;11.608;2024-01-15T09:03:34;0.20;86.60
11399;DHT22;5755;48.116;11.608;2024-01-15T09:06:00;0.20;86.00
11399;DHT22;5755;48.116;11.608;2024-01-15T09:08:27;0.20;86.10
11399;DHT22;5755;48.116;11.608;2024-01-15T09:10:54;0.20;85.90
11399;DHT22;5755;48.116;11.608;2024-01-15T09:13:21;0.30;86.00
11399;DHT22;5755;48.116;11.608;2024-01-15T09:15:49;0.40;86.00
11399;DHT22;5755;48.116;11.608;2024-01-15T09:18:16;0.50;85.00
11399;DHT22;5755;48.116;11.608;2024-01-15T09:20:42;0.50;86.90
11399;DHT22;5755;48.116;11.608;2024-01-15T09:23:09;0.50;86.10
11399;DHT22;5755;48.116;11.608;2024-01-15T09:25:42;0.50;85.30
11399;DHT22;5755;48.116;11.608;2024-01-15T09:28:10;0.50;84.30
11399;DHT22;5755;48.116;11.608;2024-01-15T09:30:37;0.50;83.80
11399;DHT22;5755;48.116;11.608;2024-01-15T09:33:05;0.60;83.20
11399;DHT22;5755;48.116;11.608;2024-01-15T09:35:32;0.60;84.10
11399;DHT22;5755;48.116;11.608;2024-01-15T09:37:59;0.70;81.90
11399;DHT22;5755;48.116;11.608;2024-01-15T09:40:31;0.70;82.10
11399;DHT22;5755;48.116;11.608;2024-01-15T09:42:58;0.80;81.40
11399;DHT22;5755;48.116;11.608;2024-01-15T09:45:26;0.70;80.00
11399;DHT22;5755;48.116;11.608;2024-01-15T09:47:52;0.80;80.90
11399;DHT22;5755;48.116;11.608;2024-01-15T09:50:21;0.80;80.60
11399;DHT22;5755;48.116;11.608;2024-01-15T09:52:48;0.90;80.20
11399;DHT22;5755;48.116;11.608;2024-01-15T09:55:17;1.10;77.80
11399;DHT22;5755;48.116;11.608;2024-01-15T09:57:52;1.10;77.50
11399;DHT22;5755;48.116;11.608;2024-01-15T10:00:22;1.20;76.30
11399;DHT22;5755;48.116;11.608;2024-01-15T10:02:49;1.20;76.90
11399;DHT22;5755;48.116;11.608;2024-01-15T10:05:16;1.20;75.80
11399;DHT22;5755;48.116;11.608;2024-01-15T10:07:46;1.40;74.10
11399;DHT22;5755;48.116;11.608;2024-01-15T10:10:14;1.50;70.60
11399;DHT22;5755;48.116;11.608;2024-01-15T10:12:41;1.50;72.90
11399;DHT22;5755;48.116;11.608;2024-01-15T10:15:09;1.50;73.00
11399;DHT22;5755;48.116;11.608;2024-01-15T10:17:37;1.60;70.60
11399;DHT22;5755;48.116;11.608;2024-01-15T10:20:08;1.60;71.60
11399;DHT22;5755;48.116;11.608;2024-01-15T10:22:35;1.60;68.70
11399;DHT22;5755;48.116;11.608;2024-01-15T10:25:05;1.50;66.10
11399;DHT22;5755;48.116;11.608;2024-01-15T10:27:32;1.40;68.70
11399;DHT22;5755;48.116;11.608;2024-01-15T10:29:59;1.20;70.90
11399;DHT22;5755;48.116;11.608;2024-01-15T10:32:28;1.30;69.80
11399;DHT22;5755;48.116;11.608;2024-01-15T10:34:55;1.30;70.00
11399;DHT22;5755;48.116;11.608;2024-01-15T10:37:24;1.20;68.70
11399;DHT22;5755;48.116;11.608;2024-01-15T10:39:51;1.30;68.90
11399;DHT22;5755;48.116;11.608;2024-01-15T10:42:19;1.40;68.00
11399;DHT22;5755;48.116;11.608;2024-01-15T10:44:53;1.40;69.20
11399;DHT22;5755;48.116;11.608;2024-01-15T10:47:20;1.60;66.20
11399;DHT22;5755;48.116;11.608;2024-01-15T10:49:47;1.60;66.10
11399;DHT22;5755;48.116;11.608;2024-01-15T10:52:15;1.70;66.20
11399;DHT22;5755;48.116;11.608;2024-01-15T10:54:42;1.80;63.70
11399;DHT22;5755;48.116;11.608;2024-01-15T10:57:10;1.80;62.10
11399;DHT22;5755;48.116;11.608;2024-01-15T11:00:06;2.00;59.30
11399;DHT22;5755;48.116;11.608;2024-01-15T11:02:36;2.00;58.20
11399;DHT22;5755;48.116;11.608;2024-01-15T11:05:03;2.00;59.00
11399;DHT22;5755;48.116;11.608;2024-01-15T11:07:30;2.00;59.50
11399;DHT22;5755;48.116;11.608;2024-01-15T11:09:57;2.10;59.50
11399;DHT22;5755;48.116;11.608;2024-01-15T11:12:24;2.10;59.50
11399;DHT22;5755;48.116;11.608;2024-01-15T11:15:04;2.10;59.50
11399;DHT22;5755;48.116;11.608;2024-01-15T11:17:58;2.10;59.90
11399;DHT22;5755;48.116;11.608;2024-01-15T11:20:25;2.10;60.80
11399;DHT22;5755;48.116;11.608;2024-01-15T11:22:52;2.20;61.20
11399;DHT22;5755;48.116;11.608;2024-01-15T11:25:19;2.10;60.60
11399;DHT22;5755;48.116;11.608;2024-01-15T11:27:47;2.10;60.50
11399;DHT22;5755;48.116;11.608;2024-01-15T11:30:18;2.20;59.10
11399;DHT22;5755;48.116;11.608;2024-01-15T11:32:46;2.30;59.00
11399;DHT22;5755;48.116;11.608;2024-01-15T11:35:13;2.30;58.40
11399;DHT22;5755;48.116;11.608;2024-01-15T11:37:58;2.30;57.20
11399;DHT22;5755;48.116;11.608;2024-01-15T11:40:37;2.40;58.70
11399;DHT22;5755;48.116;11.608;2024-01-15T11:43:04;2.50;57.40
11399;DHT22;5755;48.116;11.608;2024-01-15T11:45:32;2.50;57.50
11399;DHT22;5755;48.116;11.608;2024-01-15T11:48:11;2.30;57.40
11399;DHT22;5755;48.116;11.608;2024-01-15T11:50:40;2.20;59.20
11399;DHT22;5755;48.116;11.608;2024-01-15T11:53:16;2.30;66.90
11399;DHT22;5755;48.116;11.608;2024-01-15T11:55:44;2.60;55.50
11399;DHT22;5755;48.116;11.608;2024-01-15T11:58:12;2.30;58.40
11399;DHT22;5755;48.116;11.608;2024-01-15T12:00:45;2.10;58.30
11399;DHT22;5755;48.116;11.608;2024-01-15T12:03:14;2.30;64.60
11399;DHT22;5755;48.116;11.608;2024-01-15T12:05:41;2.40;59.20
11399;DHT22;5755;48.116;11.608;2024-01-15T12:08:08;2.20;59.00
11399;DHT22;5755;48.116;11.608;2024-01-15T12:10:36;2.10;62.10
11399;DHT22;5755;48.116;11.608;2024-01-15T12:13:10;2.30;57.70
11399;DHT22;5755;48.116;11.608;2024-01-15T12:15:37;2.50;57.40
11399;DHT22;5755;48.116;11.608;2024-01-15T12:18:10;2.40;57.80
11399;DHT22;5755;48.116;11.608;2024-01-15T12:20:58;2.10;58.80
11399;DHT22;5755;48.116;11.608;2024-01-15T12:23:25;1.90;61.80
11399;DHT22;5755;48.116;11.608;2024-01-15T12:25:52;1.80;64.30
11399;DHT22;5755;48.116;11.608;2024-01-15T12:28:19;1.70;66.20
11399;DHT22;5755;48.116;11.608;2024-01-15T12:30:47;1.60;66.10
11399;DHT22;5755;48.116;11.608;2024-01-15T12:33:17;1.60;66.10
11399;DHT22;5755;48.116;11.608;2024-01-15T12:35:45;1.60;66.20
11399;DHT22;5755;48.116;11.608;2024-01-15T12:38:11;1.60;66.20
11399;DHT22;5755;48.116;11.608;2024-01-15T12:40:39;1.50;68.20
11399;DHT22;5755;48.116;11.608;2024-01-15T12:43:06;1.50;67.30
11399;DHT22;5755;48.116;11.608;2024-01-15T12:45:33;1.60;69.70
11399;DHT22;5755;48.116;11.608;2024-01-15T12:48:00;1.60;68.30
11399;DHT22;5755;48.116;11.608;2024-01-15T12:50:30;1.60;69.40
11399;DHT22;5755;48.116;11.608;2024-01-15T12:52:59;1.60;68.40
11399;DHT22;5755;48.116;11.608;2024-01-15T12:55:26;1.50;69.40
11399;DHT22;5755;48.116;11.608;2024-01-15T12:57:53;1.50;71.20
11399;DHT22;5755;48.116;11.608;2024-01-15T13:00:20;1.50;71.90
11399;DHT22;5755;48.116;11.608;2024-01-15T13:02:47;1.70;71.60
11399;DHT22;5755;48.116;11.608;2024-01-15T13:05:16;2.10;69.20
11399;DHT22;5755;48.116;11.608;2024-01-15T13:07:44;2.60;67.20
11399;DHT22;5755;48.116;11.608;2024-01-15T13:10:14;2.90;67.00
11399;DHT22;5755;48.116;11.608;2024-01-15T13:12:41;3.10;64.00
11399;DHT22;5755;48.116;11.608;2024-01-15T13:15:08;3.30;61.80
11399;DHT22;5755;48.116;11.608;2024-01-15T13:17:37;3.50;59.50
11399;DHT22;5755;48.116;11.608;2024-01-15T13:20:05;3.70;58.80
11399;DHT22;5755;48.116;11.608;2024-01-15T13:22:32;3.80;56.50
11399;DHT22;5755;48.116;11.608;2024-01-15T13:25:00;3.60;58.00
11399;DHT22;5755;48.116;11.608;2024-01-15T13:27:29;3.50;57.80
11399;DHT22;5755;48.116;11.608;2024-01-15T13:29:56;3.30;60.30
11399;DHT22;5755;48.116;11.608;2024-01-15T13:32:24;3.40;59.70
11399;DHT22;5755;48.116;11.608;2024-01-15T13:34:52;3.30;62.00
11399;DHT22;5755;48.116;11.608;2024-01-15T13:37:19;3.20;62.10
11399;DHT22;5755;48.116;11.608;2024-01-15T13:39:45;3.10;61.30
11399;DHT22;5755;48.116;11.608;2024-01-15T13:42:14;2.90;62.30
11399;DHT22;5755;48.116;11.608;2024-01-15T13:44:41;2.80;64.40
11399;DHT22;5755;48.116;11.608;2024-01-15T13:47:08;2.80;65.20
11399;DHT22;5755;48.116;11.608;2024-01-15T13:49:35;2.80;64.00
11399;DHT22;5755;48.116;11.608;2024-01-15T13:52:03;2.80;63.30
11399;DHT22;5755;48.116;11.608;2024-01-15T13:54:30;2.80;64.00
11399;DHT22;5755;48.116;11.608;2024-01-15T13:56:56;2.60;64.60
11399;DHT22;5755;48.116;11.608;2024-01-15T13:59:25;2.50;66.00
11399;DHT22;5755;48.116;11.608;2024-01-15T14:01:52;2.50;67.10
11399;DHT22;5755;48.116;11.608;2024-01-15T14:04:19;2.50;67.10
11399;DHT22;5755;48.116;11.608;2024-01-15T14:06:46;2.40;67.00
11399;DHT22;5755;48.116;11.608;2024-01-15T14:09:13;2.40;67.00
11399;DHT22;5755;48.116;11.608;2024-01-15T14:11:40;2.50;67.10
11399;DHT22;5755;48.116;11.608;2024-01-15T14:14:07;2.50;67.10
11399;DHT22;5755;48.116;11.608;2024-01-15T14:16:36;2.50;67.10
11399;DHT22;5755;48.116;11.608;2024-01-15T14:19:03;2.40;67.10
11399;DHT22;5755;48.116;11.608;2024-01-15T14:21:31;2.30;69.30
11399;DHT22;5755;48.116;11.608;2024-01-15T14:23:58;2.20;68.90
11399;DHT22;5755;48.116;11.608;2024-01-15T14:26:25;2.10;69.90
11399;DHT22;5755;48.116;11.608;2024-01-15T14:28:52;2.00;70.10
11399;DHT22;5755;48.116;11.608;2024-01-15T14:31:19;1.90;72.50
11399;DHT22;5755;48.116;11.608;2024-01-15T14:33:48;1.80;72.70
11399;DHT22;5755;48.116;11.608;2024-01-15T14:36:14;1.80;72.10
11399;DHT22;5755;48.116;11.608;2024-01-15T14:38:41;1.80;74.40
11399;DHT22;5755;48.116;11.608;2024-01-15T14:41:08;1.90;77.10
11399;DHT22;5755;48.116;11.608;2024-01-15T14:43:35;1.70;78.40
11399;DHT22;5755;48.116;11.608;2024-01-15T14:46:02;1.80;78.00
11399;DHT22;5755;48.116;11.608;2024-01-15T14:48:29;2.40;78.20
11399;DHT22;5755;48.116;11.608;2024-01-15T14:50:57;2.60;74.00
11399;DHT22;5755;48.116;11.608;2024-01-15T14:53:24;2.60;75.30
11399;DHT22;5755;48.116;11.608;2024-01-15T14:55:50;2.40;70.60
11399;DHT22;5755;48.116;11.608;2024-01-15T14:58:19;2.20;76.40
11399;DHT22;5755;48.116;11.608;2024-01-15T15:00:46;2.40;73.00
11399;DHT22;5755;48.116;11.608;2024-01-15T15:03:14;2.50;67.10
11399;DHT22;5755;48.116;11.608;2024-01-15T15:05:41;2.20;66.80
11399;DHT22;5755;48.116;11.608;2024-01-15T15:08:09;2.10;70.10
11399;DHT22;5755;48.116;11.608;2024-01-15T15:10:37;2.20;71.70
11399;DHT22;5755;48.116;11.608;2024-01-15T15:13:06;2.60;67.20
11399;DHT22;5755;48.116;11.608;2024-01-15T15:15:32;2.50;67.10
11399;DHT22;5755;48.116;11.608;2024-01-15T15:18:00;2.50;67.10
11399;DHT22;5755;48.116;11.608;2024-01-15T15:20:26;2.50;64.20
11399;DHT22;5755;48.116;11.608;2024-01-15T15:22:53;2.60;67.20
11399;DHT22;5755;48.116;11.608;2024-01-15T15:25:22;2.40;67.00
11399;DHT22;5755;48.116;11.608;2024-01-15T15:27:49;2.30;68.10
11399;DHT22;5755;48.116;11.608;2024-01-15T15:30:16;2.30;67.00
11399;DHT22;5755;48.116;11.608;2024-01-15T15:32:43;2.00;71.50
11399;DHT22;5755;48.116;11.608;2024-01-15T15:35:10;1.80;73.60
11399;DHT22;5755;48.116;11.608;2024-01-15T15:37:36;1.90;76.60
11399;DHT22;5755;48.116;11.608;2024-01-15T15:40:05;2.30;71.60
11399;DHT22;5755;48.116;11.608;2024-01-15T15:42:35;2.20;68.90